sensor_id;sensor_type;location;lat;lon;timestamp;temperature;humidity
8780;DHT22;62328;51.19929245;4.42130175;2023-03-01T00:01:00;4.30;99.90
8780;DHT22;62328;51.19929245;4.42130175;2023-03-01T00:03:27;4.20;99.90
8780;DHT22;62328;51.19929245;4.42130175;2023-03-01T00:05:54;4.10;99.90
8780;DHT22;62328;51.19929245;4.42130175;2023-03-01T00:08:22;4.10;99.90
8780;DHT22;62328;51.19929245;4.42130175;2023-03-01T00:10:49;4.10;99.90
8780;DHT22;62328;51.19929245;4.42130175;2023-03-01T00:13:16;4.10;99.90
8780;DHT22;62328;51.19929245;4.42130175;2023-03-01T00:15:43;4.10;99.90
8780;DHT22;62328;51.19929245;4.42130175;2023-03-01T00:18:10;4.10;99.90
8780;DHT22;62328;51.19929245;4.42130175;2023-03-01T00:20:36;4.10;99.90
8780;DHT22;62328;51.19929245;4.42130175;2023-03-01T00:23:03;4.00;99.90
8780;DHT22;62328;51.19929245;4.42130175;2023-03-01T00:25:31;4.00;99.90
8780;DHT22;62328;51.19929245;4.42130175;2023-03-01T00:27:58;4.00;99.90
8780;DHT22;62328;51.19929245;4.42130175;2023-03-01T00:30:25;4.00;99.90
8780;DHT22;62328;51.19929245;4.42130175;2023-03-01T00:32:52;3.90;99.90
8780;DHT22;62328;51.19929245;4.42130175;2023-03-01T00:35:18;3.80;99.90
8780;DHT22;62328;51.19929245;4.42130175;2023-03-01T00:37:45;3.90;99.90
8780;DHT22;62328;51.19929245;4.42130175;2023-03-01T00:40:13;3.90;99.90
8780;DHT22;62328;51.19929245;4.42130175;2023-03-01T00:42:43;3.80;99.90
8780;DHT22;62328;51.19929245;4.42130175;2023-03-01T00:45:10;3.80;99.90
8780;DHT22;62328;51.19929245;4.42130175;2023-03-01T00:47:39;3.80;99.90
8780;DHT22;62328;51.19929245;4.42130175;2023-03-01T00:50:06;3.80;99.90
8780;DHT22;62328;51.19929245;4.42130175;2023-03-01T00:52:33;3.80;99.90
8780;DHT22;62328;51.19929245;4.42130175;2023-03-01T00:55:00;3.80;99.90
8780;DHT22;62328;51.19929245;4.42130175;2023-03-01T00:57:27;3.90;99.90
8780;DHT22;62328;51.19929245;4.42130175;2023-03-01T00:59:56;3.90;99.90
8780;DHT22;62328;51.19929245;4.42130175;2023-03-01T01:02:23;3.90;99.90
8780;DHT22;62328;51.19929245;4.42130175;2023-03-01T01:04:50;3.90;99.90
8780;DHT22;62328;51.19929245;4.42130175;2023-03-01T01:07:17;3.90;99.90
8780;DHT22;62328;51.19929245;4.42130175;2023-03-01T01:09:45;3.80;99.90
8780;DHT22;62328;51.19929245;4.42130175;2023-03-01T01:12:12;3.80;99.90
8780;DHT22;62328;51.19929245;4.42130175;2023-03-01T01:14:39;3.70;99.90
8780;DHT22;62328;51.19929245;4.42130175;2023-03-01T01:17:08;3.70;99.90
8780;DHT22;62328;51.19929245;4.42130175;2023-03-01T01:19:35;3.70;99.90
8780;DHT22;62328;51.19929245;4.42130175;2023-03-01T01:22:02;3.70;99.90
8780;DHT22;62328;51.19929245;4.42130175;2023-03-01T01:24:29;3.70;99.90
8780;DHT22;62328;51.19929245;4.42130175;2023-03-01T01:26:56;3.70;99.90
8780;DHT22;62328;51.19929245;4.42130175;2023-03-01T01:29:23;3.70;99.90
8780;DHT22;62328;51.19929245;4.42130175;2023-03-01T01:31:49;3.60;99.90
8780;DHT22;62328;51.19929245;4.42130175;2023-03-01T01:34:20;3.60;99.90
8780;DHT22;62328;51.19929245;4.42130175;2023-03-01T01:36:48;3.50;99.90
8780;DHT22;62328;51.19929245;4.42130175;2023-03-01T01:39:15;3.50;99.90
8780;DHT22;62328;51.19929245;4.42130175;2023-03-01T01:41:42;3.50;99.90
8780;DHT22;62328;51.19929245;4.42130175;2023-03-01T01:44:15;3.50;99.90
8780;DHT22;62328;51.19929245;4.42130175;2023-03-01T01:46:45;3.50;99.90
8780;DHT22;62328;51.19929245;4.42130175;2023-03-01T01:49:28;3.40;99.90
8780;DHT22;62328;51.19929245;4.42130175;2023-03-01T01:52:00;3.40;99.90
8780;DHT22;62328;51.19929245;4.42130175;2023-03-01T01:54:42;3.40;99.90
8780;DHT22;62328;51.19929245;4.42130175;2023-03-01T01:57:14;3.40;99.90
8780;DHT22;62328;51.19929245;4.42130175;2023-03-01T01:59:45;3.50;99.90
8780;DHT22;62328;51.19929245;4.42130175;2023-03-01T02:02:13;3.50;99.90
8780;DHT22;62328;51.19929245;4.42130175;2023-03-01T02:04:42;3.50;99.90
8780;DHT22;62328;51.19929245;4.42130175;2023-03-01T02:07:13;3.50;99.90
8780;DHT22;62328;51.19929245;4.42130175;2023-03-01T02:09:42;3.50;99.90
8780;DHT22;62328;51.19929245;4.42130175;2023-03-01T02:12:10;3.50;99.90
8780;DHT22;62328;51.19929245;4.42130175;2023-03-01T02:14:37;3.50;99.90
8780;DHT22;62328;51.19929245;4.42130175;2023-03-01T02:17:04;3.50;99.90
8780;DHT22;62328;51.19929245;4.42130175;2023-03-01T02:19:47;3.50;99.90
8780;DHT22;62328;51.19929245;4.42130175;2023-03-01T02:22:22;3.40;99.90
8780;DHT22;62328;51.19929245;4.42130175;2023-03-01T02:25:02;3.50;99.90
8780;DHT22;62328;51.19929245;4.42130175;2023-03-01T02:27:37;3.30;99.90
8780;DHT22;62328;51.19929245;4.42130175;2023-03-01T02:30:07;3.40;99.90
8780;DHT22;62328;51.19929245;4.42130175;2023-03-01T02:32:39;3.40;99.90
8780;DHT22;62328;51.19929245;4.42130175;2023-03-01T02:35:09;3.40;99.90
8780;DHT22;62328;51.19929245;4.42130175;2023-03-01T02:37:37;3.40;99.90
8780;DHT22;62328;51.19929245;4.42130175;2023-03-01T02:40:08;3.30;99.90
8780;DHT22;62328;51.19929245;4.42130175;2023-03-01T02:42:42;3.40;99.90
8780;DHT22;62328;51.19929245;4.42130175;2023-03-01T02:45:13;3.30;99.90
8780;DHT22;62328;51.19929245;4.42130175;2023-03-01T02:47:40;3.30;99.90
8780;DHT22;62328;51.19929245;4.42130175;2023-03-01T02:50:18;3.30;99.90
8780;DHT22;62328;51.19929245;4.42130175;2023-03-01T02:52:55;3.30;99.90
8780;DHT22;62328;51.19929245;4.42130175;2023-03-01T02:55:24;3.20;99.90
8780;DHT22;62328;51.19929245;4.42130175;2023-03-01T02:57:51;3.20;99.90
8780;DHT22;62328;51.19929245;4.42130175;2023-03-01T03:00:23;3.20;99.90
8780;DHT22;62328;51.19929245;4.42130175;2023-03-01T03:02:53;3.10;99.90
8780;DHT22;62328;51.19929245;4.42130175;2023-03-01T03:05:24;3.10;99.90
8780;DHT22;62328;51.19929245;4.42130175;2023-03-01T03:07:52;3.10;99.90
8780;DHT22;62328;51.19929245;4.42130175;2023-03-01T03:10:21;3.10;99.90
8780;DHT22;62328;51.19929245;4.42130175;2023-03-01T03:12:52;3.00;99.90
8780;DHT22;62328;51.19929245;4.42130175;2023-03-01T03:15:22;3.00;99.90
8780;DHT22;62328;51.19929245;4.42130175;2023-03-01T03:17:51;3.00;99.90
8780;DHT22;62328;51.19929245;4.42130175;2023-03-01T03:20:21;3.00;99.90
8780;DHT22;62328;51.19929245;4.42130175;2023-03-01T03:22:50;3.00;99.90
8780;DHT22;62328;51.19929245;4.42130175;2023-03-01T03:25:18;3.00;99.90
8780;DHT22;62328;51.19929245;4.42130175;2023-03-01T03:27:46;3.00;99.90
8780;DHT22;62328;51.19929245;4.42130175;2023-03-01T03:30:15;3.00;99.90
8780;DHT22;62328;51.19929245;4.42130175;2023-03-01T03:32:45;3.10;99.90
8780;DHT22;62328;51.19929245;4.42130175;2023-03-01T03:35:18;3.00;99.90
8780;DHT22;62328;51.19929245;4.42130175;2023-03-01T03:37:45;3.00;99.90
8780;DHT22;62328;51.19929245;4.42130175;2023-03-01T03:40:34;3.00;99.90
8780;DHT22;62328;51.19929245;4.42130175;2023-03-01T03:43:01;2.90;99.90
8780;DHT22;62328;51.19929245;4.42130175;2023-03-01T03:45:28;3.00;99.90
8780;DHT22;62328;51.19929245;4.42130175;2023-03-01T03:47:57;3.00;99.90
8780;DHT22;62328;51.19929245;4.42130175;2023-03-01T03:50:24;3.00;99.90
8780;DHT22;62328;51.19929245;4.42130175;2023-03-01T03:52:51;3.00;99.90
8780;DHT22;62328;51.19929245;4.42130175;2023-03-01T03:55:19;3.00;99.90
8780;DHT22;62328;51.19929245;4.42130175;2023-03-01T03:57:47;3.00;99.90
8780;DHT22;62328;51.19929245;4.42130175;2023-03-01T04:00:19;3.00;99.90
8780;DHT22;62328;51.19929245;4.42130175;2023-03-01T04:02:47;3.00;99.90
8780;DHT22;62328;51.19929245;4.42130175;2023-03-01T04:05:17;3.00;99.90
8780;DHT22;62328;51.19929245;4.42130175;2023-03-01T04:07:45;3.00;99.90
8780;DHT22;62328;51.19929245;4.42130175;2023-03-01T04:10:14;3.00;99.90
8780;DHT22;62328;51.19929245;4.42130175;2023-03-01T04:12:41;2.90;99.90
8780;DHT22;62328;51.19929245;4.42130175;2023-03-01T04:15:11;2.90;99.90
8780;DHT22;62328;51.19929245;4.42130175;2023-03-01T04:17:41;2.90;99.90
8780;DHT22;62328;51.19929245;4.42130175;2023-03-01T04:20:09;2.80;99.90
8780;DHT22;62328;51.19929245;4.42130175;2023-03-01T04:22:39;2.80;99.90
8780;DHT22;62328;51.19929245;4.42130175;2023-03-01T04:25:07;2.80;99.90
8780;DHT22;62328;51.19929245;4.42130175;2023-03-01T04:27:34;2.80;99.90
8780;DHT22;62328;51.19929245;4.42130175;2023-03-01T04:30:01;2.70;99.90
8780;DHT22;62328;51.19929245;4.42130175;2023-03-01T04:32:28;2.70;99.90
8780;DHT22;62328;51.19929245;4.42130175;2023-03-01T04:34:55;2.70;99.90
8780;DHT22;62328;51.19929245;4.42130175;2023-03-01T04:37:23;2.90;99.90
8780;DHT22;62328;51.19929245;4.42130175;2023-03-01T04:39:52;2.70;99.90
8780;DHT22;62328;51.19929245;4.42130175;2023-03-01T04:42:19;2.50;99.90
8780;DHT22;62328;51.19929245;4.42130175;2023-03-01T04:44:48;2.70;99.90
8780;DHT22;62328;51.19929245;4.42130175;2023-03-01T04:47:17;2.60;99.90
8780;DHT22;62328;51.19929245;4.42130175;2023-03-01T04:49:43;2.60;99.90
8780;DHT22;62328;51.19929245;4.42130175;2023-03-01T04:52:10;2.70;99.90
8780;DHT22;62328;51.19929245;4.42130175;2023-03-01T04:54:37;2.70;99.90
8780;DHT22;62328;51.19929245;4.42130175;2023-03-01T04:57:06;2.70;99.90
8780;DHT22;62328;51.19929245;4.42130175;2023-03-01T04:59:33;2.70;99.90
8780;DHT22;62328;51.19929245;4.42130175;2023-03-01T05:02:01;2.70;99.90
8780;DHT22;62328;51.19929245;4.42130175;2023-03-01T05:04:28;2.70;99.90
8780;DHT22;62328;51.19929245;4.42130175;2023-03-01T05:06:55;2.70;99.90
8780;DHT22;62328;51.19929245;4.42130175;2023-03-01T05:09:24;2.70;99.90
8780;DHT22;62328;51.19929245;4.42130175;2023-03-01T05:11:51;2.70;99.90
8780;DHT22;62328;51.19929245;4.42130175;2023-03-01T05:14:19;2.70;99.90
8780;DHT22;62328;51.19929245;4.42130175;2023-03-01T05:16:46;2.60;99.90
8780;DHT22;62328;51.19929245;4.42130175;2023-03-01T05:19:12;2.60;99.90
8780;DHT22;62328;51.19929245;4.42130175;2023-03-01T05:21:41;2.60;99.90
8780;DHT22;62328;51.19929245;4.42130175;2023-03-01T05:24:22;2.50;99.90
8780;DHT22;62328;51.19929245;4.42130175;2023-03-01T05:26:49;2.50;99.90
8780;DHT22;62328;51.19929245;4.42130175;2023-03-01T05:29:19;2.60;99.90
8780;DHT22;62328;51.19929245;4.42130175;2023-03-01T05:31:51;2.50;99.90
8780;DHT22;62328;51.19929245;4.42130175;2023-03-01T05:34:19;2.50;99.90
8780;DHT22;62328;51.19929245;4.42130175;2023-03-01T05:36:48;2.50;99.90
8780;DHT22;62328;51.19929245;4.42130175;2023-03-01T05:39:19;2.50;99.90
8780;DHT22;62328;51.19929245;4.42130175;2023-03-01T05:41:47;2.50;99.90
8780;DHT22;62328;51.19929245;4.42130175;2023-03-01T05:44:14;2.50;99.90
8780;DHT22;62328;51.19929245;4.42130175;2023-03-01T05:46:43;2.40;99.90
8780;DHT22;62328;51.19929245;4.42130175;2023-03-01T05:49:10;2.40;99.90
8780;DHT22;62328;51.19929245;4.42130175;2023-03-01T05:51:39;2.40;99.90
8780;DHT22;62328;51.19929245;4.42130175;2023-03-01T05:54:05;2.40;99.90
8780;DHT22;62328;51.19929245;4.42130175;2023-03-01T05:56:33;2.30;99.90
8780;DHT22;62328;51.19929245;4.42130175;2023-03-01T05:59:00;2.30;99.90
8780;DHT22;62328;51.19929245;4.42130175;2023-03-01T06:01:27;2.30;99.90
8780;DHT22;62328;51.19929245;4.42130175;2023-03-01T06:03:56;2.40;99.90
8780;DHT22;62328;51.19929245;4.42130175;2023-03-01T06:06:23;2.40;99.90
8780;DHT22;62328;51.19929245;4.42130175;2023-03-01T06:08:50;2.40;99.90
8780;DHT22;62328;51.19929245;4.42130175;2023-03-01T06:11:17;2.40;99.90
8780;DHT22;62328;51.19929245;4.42130175;2023-03-01T06:13:46;2.40;99.90
8780;DHT22;62328;51.19929245;4.42130175;2023-03-01T06:16:13;2.40;99.90
8780;DHT22;62328;51.19929245;4.42130175;2023-03-01T06:18:40;2.80;99.90
8780;DHT22;62328;51.19929245;4.42130175;2023-03-01T06:21:09;2.40;99.90
8780;DHT22;62328;51.19929245;4.42130175;2023-03-01T06:23:36;2.50;99.90
8780;DHT22;62328;51.19929245;4.42130175;2023-03-01T06:26:06;2.50;99.90
8780;DHT22;62328;51.19929245;4.42130175;2023-03-01T06:28:33;2.50;99.90
8780;DHT22;62328;51.19929245;4.42130175;2023-03-01T06:31:00;2.50;99.90
8780;DHT22;62328;51.19929245;4.42130175;2023-03-01T06:33:26;2.50;99.90
8780;DHT22;62328;51.19929245;4.42130175;2023-03-01T06:35:54;2.40;99.90
8780;DHT22;62328;51.19929245;4.42130175;2023-03-01T06:38:22;2.40;99.90
8780;DHT22;62328;51.19929245;4.42130175;2023-03-01T06:40:52;2.40;99.90
8780;DHT22;62328;51.19929245;4.42130175;2023-03-01T06:43:22;2.40;99.90
8780;DHT22;62328;51.19929245;4.42130175;2023-03-01T06:45:48;2.40;99.90
8780;DHT22;62328;51.19929245;4.42130175;2023-03-01T06:48:16;2.40;99.90
8780;DHT22;62328;51.19929245;4.42130175;2023-03-01T06:50:42;2.40;99.90
8780;DHT22;62328;51.19929245;4.42130175;2023-03-01T06:53:09;2.40;99.90
8780;DHT22;62328;51.19929245;4.42130175;2023-03-01T06:55:40;2.40;99.90
8780;DHT22;62328;51.19929245;4.42130175;2023-03-01T06:58:08;2.40;99.90
8780;DHT22;62328;51.19929245;4.42130175;2023-03-01T07:00:35;2.40;99.90
8780;DHT22;62328;51.19929245;4.42130175;2023-03-01T07:03:02;2.40;99.90
8780;DHT22;62328;51.19929245;4.42130175;2023-03-01T07:05:30;2.40;99.90
8780;DHT22;62328;51.19929245;4.42130175;2023-03-01T07:07:57;2.40;99.90
8780;DHT22;62328;51.19929245;4.42130175;2023-03-01T07:10:25;2.40;99.90
8780;DHT22;62328;51.19929245;4.42130175;2023-03-01T07:12:56;2.40;99.90
8780;DHT22;62328;51.19929245;4.42130175;2023-03-01T07:15:23;2.40;99.90
8780;DHT22;62328;51.19929245;4.42130175;2023-03-01T07:17:49;2.40;99.90
8780;DHT22;62328;51.19929245;4.42130175;2023-03-01T07:20:16;2.40;99.90
8780;DHT22;62328;51.19929245;4.42130175;2023-03-01T07:22:44;2.40;99.90
8780;DHT22;62328;51.19929245;4.42130175;2023-03-01T07:25:11;2.40;99.90
8780;DHT22;62328;51.19929245;4.42130175;2023-03-01T07:27:38;2.40;99.90
8780;DHT22;62328;51.19929245;4.42130175;2023-03-01T07:30:07;2.40;99.90
8780;DHT22;62328;51.19929245;4.42130175;2023-03-01T07:32:35;2.40;99.90
8780;DHT22;62328;51.19929245;4.42130175;2023-03-01T07:35:01;2.50;99.90
8780;DHT22;62328;51.19929245;4.42130175;2023-03-01T07:37:28;2.50;99.90
8780;DHT22;62328;51.19929245;4.42130175;2023-03-01T07:39:55;2.50;99.90
8780;DHT22;62328;51.19929245;4.42130175;2023-03-01T07:42:23;2.60;99.90
8780;DHT22;62328;51.19929245;4.42130175;2023-03-01T07:44:50;2.60;99.90
8780;DHT22;62328;51.19929245;4.42130175;2023-03-01T07:47:18;2.60;99.90
8780;DHT22;62328;51.19929245;4.42130175;2023-03-01T07:49:45;2.70;99.90
8780;DHT22;62328;51.19929245;4.42130175;2023-03-01T07:52:11;2.70;99.90
8780;DHT22;62328;51.19929245;4.42130175;2023-03-01T07:54:39;2.80;99.90
8780;DHT22;62328;51.19929245;4.42130175;2023-03-01T07:57:05;2.80;99.90
8780;DHT22;62328;51.19929245;4.42130175;2023-03-01T07:59:32;2.80;99.90
8780;DHT22;62328;51.19929245;4.42130175;2023-03-01T08:01:59;2.80;99.90
8780;DHT22;62328;51.19929245;4.42130175;2023-03-01T08:04:27;2.90;99.90
8780;DHT22;62328;51.19929245;4.42130175;2023-03-01T08:06:56;2.90;99.90
8780;DHT22;62328;51.19929245;4.42130175;2023-03-01T08:09:23;3.00;99.90
8780;DHT22;62328;51.19929245;4.42130175;2023-03-01T08:11:50;3.10;99.90
8780;DHT22;62328;51.19929245;4.42130175;2023-03-01T08:14:17;3.10;99.90
8780;DHT22;62328;51.19929245;4.42130175;2023-03-01T08:16:44;3.20;99.90
8780;DHT22;62328;51.19929245;4.42130175;2023-03-01T08:19:12;3.20;99.90
8780;DHT22;62328;51.19929245;4.42130175;2023-03-01T08:21:40;3.20;99.90
8780;DHT22;62328;51.19929245;4.42130175;2023-03-01T08:24:07;3.20;99.90
8780;DHT22;62328;51.19929245;4.42130175;2023-03-01T08:26:36;3.30;99.90
8780;DHT22;62328;51.19929245;4.42130175;2023-03-01T08:29:03;3.40;99.90
8780;DHT22;62328;51.19929245;4.42130175;2023-03-01T08:31:32;3.40;99.90
8780;DHT22;62328;51.19929245;4.42130175;2023-03-01T08:34:03;3.50;99.90
8780;DHT22;62328;51.19929245;4.42130175;2023-03-01T08:36:32;3.50;99.90
8780;DHT22;62328;51.19929245;4.42130175;2023-03-01T08:39:01;3.60;99.90
8780;DHT22;62328;51.19929245;4.42130175;2023-03-01T08:41:29;3.70;99.90
8780;DHT22;62328;51.19929245;4.42130175;2023-03-01T08:43:56;3.70;99.90
8780;DHT22;62328;51.19929245;4.42130175;2023-03-01T08:46:25;3.80;99.90
8780;DHT22;62328;51.19929245;4.42130175;2023-03-01T08:48:58;3.90;99.90
8780;DHT22;62328;51.19929245;4.42130175;2023-03-01T08:51:26;4.00;99.90
8780;DHT22;62328;51.19929245;4.42130175;2023-03-01T08:53:52;4.10;99.90
8780;DHT22;62328;51.19929245;4.42130175;2023-03-01T08:56:21;4.20;99.90
8780;DHT22;62328;51.19929245;4.42130175;2023-03-01T08:58:48;4.30;99.90
8780;DHT22;62328;51.19929245;4.42130175;2023-03-01T09:01:18;4.40;99.90
8780;DHT22;62328;51.19929245;4.42130175;2023-03-01T09:03:45;4.50;99.90
8780;DHT22;62328;51.19929245;4.42130175;2023-03-01T09:06:12;4.60;99.90
8780;DHT22;62328;51.19929245;4.42130175;2023-03-01T09:08:42;4.70;99.90
8780;DHT22;62328;51.19929245;4.42130175;2023-03-01T09:11:15;4.70;99.90
8780;DHT22;62328;51.19929245;4.42130175;2023-03-01T09:13:44;4.80;99.90
8780;DHT22;62328;51.19929245;4.42130175;2023-03-01T09:16:12;4.90;99.90
8780;DHT22;62328;51.19929245;4.42130175;2023-03-01T09:18:39;5.00;99.90
8780;DHT22;62328;51.19929245;4.42130175;2023-03-01T09:21:07;5.10;99.90
8780;DHT22;62328;51.19929245;4.42130175;2023-03-01T09:23:35;5.20;99.90
8780;DHT22;62328;51.19929245;4.42130175;2023-03-01T09:26:04;5.30;99.90
8780;DHT22;62328;51.19929245;4.42130175;2023-03-01T09:28:32;5.40;99.90
8780;DHT22;62328;51.19929245;4.42130175;2023-03-01T09:31:01;5.40;99.90
8780;DHT22;62328;51.19929245;4.42130175;2023-03-01T09:33:30;5.50;99.90
8780;DHT22;62328;51.19929245;4.42130175;2023-03-01T09:35:57;5.50;99.90
8780;DHT22;62328;51.19929245;4.42130175;2023-03-01T09:38:25;5.60;99.90
8780;DHT22;62328;51.19929245;4.42130175;2023-03-01T09:40:52;5.70;99.90
8780;DHT22;62328;51.19929245;4.42130175;2023-03-01T09:43:22;5.70;99.90
8780;DHT22;62328;51.19929245;4.42130175;2023-03-01T09:45:51;5.80;99.90
8780;DHT22;62328;51.19929245;4.42130175;2023-03-01T09:48:23;5.90;99.90
8780;DHT22;62328;51.19929245;4.42130175;2023-03-01T09:50:51;6.00;99.90
8780;DHT22;62328;51.19929245;4.42130175;2023-03-01T09:53:20;6.10;99.90
8780;DHT22;62328;51.19929245;4.42130175;2023-03-01T09:55:51;6.20;99.90
8780;DHT22;62328;51.19929245;4.42130175;2023-03-01T09:58:34;6.30;99.90
8780;DHT22;62328;51.19929245;4.42130175;2023-03-01T10:01:23;6.40;99.90
8780;DHT22;62328;51.19929245;4.42130175;2023-03-01T10:04:06;6.40;99.90
8780;DHT22;62328;51.19929245;4.42130175;2023-03-01T10:06:36;6.50;99.90
8780;DHT22;62328;51.19929245;4.42130175;2023-03-01T10:09:09;6.70;99.90
8780;DHT22;62328;51.19929245;4.42130175;2023-03-01T10:11:38;6.80;99.90
8780;DHT22;62328;51.19929245;4.42130175;2023-03-01T10:14:12;7.00;99.90
8780;DHT22;62328;51.19929245;4.42130175;2023-03-01T10:16:43;7.20;99.90
8780;DHT22;62328;51.19929245;4.42130175;2023-03-01T10:19:29;7.40;99.90
8780;DHT22;62328;51.19929245;4.42130175;2023-03-01T10:22:04;7.60;99.90
8780;DHT22;62328;51.19929245;4.42130175;2023-03-01T10:24:36;7.70;99.90
8780;DHT22;62328;51.19929245;4.42130175;2023-03-01T10:27:07;7.80;99.90
8780;DHT22;62328;51.19929245;4.42130175;2023-03-01T10:29:41;8.00;99.90
8780;DHT22;62328;51.19929245;4.42130175;2023-03-01T10:32:10;8.10;99.90
8780;DHT22;62328;51.19929245;4.42130175;2023-03-01T10:34:39;8.40;99.90
8780;DHT22;62328;51.19929245;4.42130175;2023-03-01T10:37:11;8.70;99.90
8780;DHT22;62328;51.19929245;4.42130175;2023-03-01T10:39:54;9.10;99.90
8780;DHT22;62328;51.19929245;4.42130175;2023-03-01T10:42:26;9.40;99.90
8780;DHT22;62328;51.19929245;4.42130175;2023-03-01T10:44:56;9.50;99.90
8780;DHT22;62328;51.19929245;4.42130175;2023-03-01T10:47:25;9.40;99.90
8780;DHT22;62328;51.19929245;4.42130175;2023-03-01T10:49:58;9.30;99.90
8780;DHT22;62328;51.19929245;4.42130175;2023-03-01T10:52:28;9.10;99.90
8780;DHT22;62328;51.19929245;4.42130175;2023-03-01T10:54:57;8.90;99.90
8780;DHT22;62328;51.19929245;4.42130175;2023-03-01T10:57:42;8.80;99.90
8780;DHT22;62328;51.19929245;4.42130175;2023-03-01T11:00:25;8.60;99.90
8780;DHT22;62328;51.19929245;4.42130175;2023-03-01T11:03:12;8.60;99.90
8780;DHT22;62328;51.19929245;4.42130175;2023-03-01T11:05:57;8.50;99.90
8780;DHT22;62328;51.19929245;4.42130175;2023-03-01T11:08:36;8.50;99.90
8780;DHT22;62328;51.19929245;4.42130175;2023-03-01T11:11:21;8.40;99.90
8780;DHT22;62328;51.19929245;4.42130175;2023-03-01T11:13:52;8.30;99.90
8780;DHT22;62328;51.19929245;4.42130175;2023-03-01T11:16:25;8.30;99.90
8780;DHT22;62328;51.19929245;4.42130175;2023-03-01T11:18:57;8.30;99.90
8780;DHT22;62328;51.19929245;4.42130175;2023-03-01T11:21:28;9.20;99.90
8780;DHT22;62328;51.19929245;4.42130175;2023-03-01T11:23:58;9.10;99.90
8780;DHT22;62328;51.19929245;4.42130175;2023-03-01T11:26:27;9.00;99.90
8780;DHT22;62328;51.19929245;4.42130175;2023-03-01T11:28:58;8.90;99.90
8780;DHT22;62328;51.19929245;4.42130175;2023-03-01T11:31:27;8.80;99.90
8780;DHT22;62328;51.19929245;4.42130175;2023-03-01T11:33:57;8.70;99.90
8780;DHT22;62328;51.19929245;4.42130175;2023-03-01T11:36:32;8.70;99.90
8780;DHT22;62328;51.19929245;4.42130175;2023-03-01T11:39:12;8.60;99.90
8780;DHT22;62328;51.19929245;4.42130175;2023-03-01T11:41:47;8.60;99.90
8780;DHT22;62328;51.19929245;4.42130175;2023-03-01T11:44:22;8.50;99.90
8780;DHT22;62328;51.19929245;4.42130175;2023-03-01T11:47:08;8.50;99.90
8780;DHT22;62328;51.19929245;4.42130175;2023-03-01T11:49:59;8.50;99.90
8780;DHT22;62328;51.19929245;4.42130175;2023-03-01T11:52:38;8.60;99.90
8780;DHT22;62328;51.19929245;4.42130175;2023-03-01T11:55:25;8.60;99.90
8780;DHT22;62328;51.19929245;4.42130175;2023-03-01T11:58:03;8.70;99.90
8780;DHT22;62328;51.19929245;4.42130175;2023-03-01T12:00:57;8.70;99.90
8780;DHT22;62328;51.19929245;4.42130175;2023-03-01T12:03:38;8.70;99.90
8780;DHT22;62328;51.19929245;4.42130175;2023-03-01T12:06:28;8.70;99.90
8780;DHT22;62328;51.19929245;4.42130175;2023-03-01T12:09:13;8.80;99.90
8780;DHT22;62328;51.19929245;4.42130175;2023-03-01T12:12:00;8.80;99.90
8780;DHT22;62328;51.19929245;4.42130175;2023-03-01T12:14:46;8.80;99.90
8780;DHT22;62328;51.19929245;4.42130175;2023-03-01T12:17:26;8.90;99.90
8780;DHT22;62328;51.19929245;4.42130175;2023-03-01T12:20:11;8.90;99.90
8780;DHT22;62328;51.19929245;4.42130175;2023-03-01T12:22:49;8.90;99.90
8780;DHT22;62328;51.19929245;4.42130175;2023-03-01T12:25:25;9.00;99.90
8780;DHT22;62328;51.19929245;4.42130175;2023-03-01T12:28:18;9.00;99.90
8780;DHT22;62328;51.19929245;4.42130175;2023-03-01T12:31:11;9.00;99.90
8780;DHT22;62328;51.19929245;4.42130175;2023-03-01T12:33:48;9.00;99.90
8780;DHT22;62328;51.19929245;4.42130175;2023-03-01T12:36:49;9.10;99.90
8780;DHT22;62328;51.19929245;4.42130175;2023-03-01T12:39:38;9.20;99.90
8780;DHT22;62328;51.19929245;4.42130175;2023-03-01T12:42:16;9.20;99.90
8780;DHT22;62328;51.19929245;4.42130175;2023-03-01T12:45:09;9.20;99.90
8780;DHT22;62328;51.19929245;4.42130175;2023-03-01T12:47:57;9.30;99.90
8780;DHT22;62328;51.19929245;4.42130175;2023-03-01T12:50:29;9.30;99.90
8780;DHT22;62328;51.19929245;4.42130175;2023-03-01T12:53:01;9.30;99.90
8780;DHT22;62328;51.19929245;4.42130175;2023-03-01T12:55:31;9.20;99.90
8780;DHT22;62328;51.19929245;4.42130175;2023-03-01T12:58:07;9.20;99.90
8780;DHT22;62328;51.19929245;4.42130175;2023-03-01T13:00:41;9.20;99.90
8780;DHT22;62328;51.19929245;4.42130175;2023-03-01T13:03:19;9.30;99.90
8780;DHT22;62328;51.19929245;4.42130175;2023-03-01T13:06:01;9.30;99.90
8780;DHT22;62328;51.19929245;4.42130175;2023-03-01T13:08:36;9.20;99.90
8780;DHT22;62328;51.19929245;4.42130175;2023-03-01T13:11:15;9.20;99.90
8780;DHT22;62328;51.19929245;4.42130175;2023-03-01T13:13:44;9.30;99.90
8780;DHT22;62328;51.19929245;4.42130175;2023-03-01T13:16:21;9.30;99.90
8780;DHT22;62328;51.19929245;4.42130175;2023-03-01T13:18:49;9.40;99.90
8780;DHT22;62328;51.19929245;4.42130175;2023-03-01T13:21:31;9.40;99.90
8780;DHT22;62328;51.19929245;4.42130175;2023-03-01T13:23:58;9.50;99.90
8780;DHT22;62328;51.19929245;4.42130175;2023-03-01T13:26:25;9.50;99.90
8780;DHT22;62328;51.19929245;4.42130175;2023-03-01T13:28:57;9.50;99.90
8780;DHT22;62328;51.19929245;4.42130175;2023-03-01T13:31:59;9.50;99.90
8780;DHT22;62328;51.19929245;4.42130175;2023-03-01T13:34:43;9.60;99.90
8780;DHT22;62328;51.19929245;4.42130175;2023-03-01T13:37:22;9.60;99.90
8780;DHT22;62328;51.19929245;4.42130175;2023-03-01T13:39:51;9.70;99.90
8780;DHT22;62328;51.19929245;4.42130175;2023-03-01T13:42:34;9.70;99.90
8780;DHT22;62328;51.19929245;4.42130175;2023-03-01T13:45:24;9.70;99.90
8780;DHT22;62328;51.19929245;4.42130175;2023-03-01T13:47:56;9.70;99.90
8780;DHT22;62328;51.19929245;4.42130175;2023-03-01T13:50:26;9.70;99.90
8780;DHT22;62328;51.19929245;4.42130175;2023-03-01T13:52:56;9.70;99.90
8780;DHT22;62328;51.19929245;4.42130175;2023-03-01T13:55:30;9.60;99.90
8780;DHT22;62328;51.19929245;4.42130175;2023-03-01T13:58:01;9.70;99.90
8780;DHT22;62328;51.19929245;4.42130175;2023-03-01T14:00:37;9.70;99.90
8780;DHT22;62328;51.19929245;4.42130175;2023-03-01T14:03:15;9.70;99.90
8780;DHT22;62328;51.19929245;4.42130175;2023-03-01T14:05:57;9.70;99.90
8780;DHT22;62328;51.19929245;4.42130175;2023-03-01T14:08:26;9.80;99.90